»·PEaware :: ECADR KLAX-KSAN

ECADR :: KLAX-KSAN

FLIGHT INFORMATION

Flight Status: Arrived
Operator: Unknown
More flights by this operator :: More flights under this callsign
Pilot: Adrián R. (20842)
Aircraft: BEECH AIRCRAFT DEBONAIR BONANZA
(BE33)
More flights by this aircraft type
Origin: KLAX Los Angeles Intl
United States
Destination: KSAN San Diego Intl-Lindbergh
United States
More flights between these airports :: More routes between these airports
Route: COAST FLYWAY
File this flight plan on PilotEdge
Remarks: CAT 11 RATING
Altitude:
(Current/Filed)
5,500ft
Speed:
(Current/Filed)
160kts
Departed: 02-Nov-18 07:59 AM
Arrived: 02-Nov-18 08:44 AM
Distance/Time
Traveled:
95nm/0:44
Distance/Time
To Go:
Arrived

Flight Plot

Page will automatically refresh every two minutes.

Flight plan parsing failed; only flown route is shown


Map Options




Map Legend


Flown Route
Filed Route
Departure Airport
Arrival Airport
Navaid (VOR, NDB)
Fix

Horizontal Profiles

Position Reports

Time Latitude Longitude Heading Altitude Ground
Speed
02-Nov-18 07:15 33.933264 -118.397433 264 108ft 0kts
02-Nov-18 07:16 33.933264 -118.397433 264 108ft 0kts
02-Nov-18 07:17 33.933264 -118.397433 264 108ft 0kts
02-Nov-18 07:18 33.933264 -118.397433 264 108ft 0kts
02-Nov-18 07:19 33.933264 -118.397433 264 108ft 0kts
02-Nov-18 07:20 33.933264 -118.397433 264 108ft 0kts
02-Nov-18 07:21 33.933264 -118.397433 264 108ft 0kts
02-Nov-18 07:22 33.933264 -118.397433 264 108ft 0kts
02-Nov-18 07:23 33.933264 -118.397433 264 108ft 0kts
02-Nov-18 07:24 33.933264 -118.397433 264 108ft 0kts
02-Nov-18 07:25 33.933264 -118.397433 264 108ft 0kts
02-Nov-18 07:26 33.933264 -118.397433 264 108ft 0kts
02-Nov-18 07:27 33.933264 -118.397433 264 108ft 0kts
02-Nov-18 07:28 33.933264 -118.397433 264 108ft 0kts
02-Nov-18 07:29 33.933264 -118.397433 264 108ft 0kts
02-Nov-18 07:30 33.933264 -118.397433 264 108ft 0kts
02-Nov-18 07:31 33.933264 -118.397433 264 108ft 0kts
02-Nov-18 07:32 33.933264 -118.397433 264 108ft 0kts
02-Nov-18 07:33 33.933264 -118.397433 264 108ft 0kts
02-Nov-18 07:34 33.933264 -118.397433 264 108ft 0kts
02-Nov-18 07:35 33.933264 -118.397433 264 108ft 0kts
02-Nov-18 07:35 33.933264 -118.397433 264 108ft 0kts
02-Nov-18 07:37 33.933264 -118.397433 264 108ft 0kts
02-Nov-18 07:38 33.933264 -118.397433 264 108ft 0kts
02-Nov-18 07:39 33.933264 -118.397433 264 108ft 0kts
02-Nov-18 07:39 33.933264 -118.397433 263 108ft 0kts
02-Nov-18 07:40 33.933264 -118.397433 263 108ft 0kts
02-Nov-18 07:41 33.933264 -118.397433 263 108ft 0kts
02-Nov-18 07:43 33.933264 -118.397433 263 108ft 0kts
02-Nov-18 07:43 33.933264 -118.397433 263 108ft 0kts
02-Nov-18 07:44 33.933264 -118.397433 263 108ft 0kts
02-Nov-18 07:46 33.933264 -118.397433 263 108ft 0kts
02-Nov-18 07:46 33.933264 -118.397433 263 108ft 0kts
02-Nov-18 07:47 33.933262 -118.397451 262 108ft 0kts
02-Nov-18 07:48 33.933262 -118.397451 262 108ft 0kts
02-Nov-18 07:49 33.933262 -118.397451 262 108ft 0kts
02-Nov-18 07:50 33.933262 -118.397451 262 108ft 0kts
02-Nov-18 07:51 33.933262 -118.397451 262 108ft 0kts
02-Nov-18 07:52 33.933256 -118.397572 281 109ft 4kts
02-Nov-18 07:53 33.933498 -118.397927 318 108ft 0kts
02-Nov-18 07:54 33.934558 -118.397973 71 108ft 16kts
02-Nov-18 07:55 33.935285 -118.391184 79 109ft 2kts
02-Nov-18 07:56 33.935450 -118.389474 84 108ft 12kts
02-Nov-18 07:57 33.936073 -118.383311 82 109ft 12kts
02-Nov-18 07:58 33.936407 -118.382720 355 109ft 0kts
02-Nov-18 07:59 33.936407 -118.382720 355 109ft 0kts
02-Nov-18 08:00 33.937173 -118.384560 263 109ft 36kts
02-Nov-18 08:01 33.934744 -118.412913 267 1058ft 96kts
02-Nov-18 08:02 33.932377 -118.446233 265 2355ft 104kts
02-Nov-18 08:03 33.929044 -118.491370 255 2484ft 139kts
02-Nov-18 08:04 33.894108 -118.502509 169 2414ft 151kts
02-Nov-18 08:05 33.854808 -118.489434 125 2495ft 148kts
02-Nov-18 08:06 33.832669 -118.449796 122 3259ft 139kts
02-Nov-18 08:07 33.808813 -118.407845 123 3402ft 164kts
02-Nov-18 08:08 33.784086 -118.364448 123 3942ft 147kts
02-Nov-18 08:09 33.761724 -118.326116 123 4699ft 134kts
02-Nov-18 08:10 33.742052 -118.289461 107 5362ft 135kts
02-Nov-18 08:11 33.728486 -118.242302 106 5397ft 159kts
02-Nov-18 08:12 33.713793 -118.191028 106 5433ft 165kts
02-Nov-18 08:13 33.694843 -118.140348 132 5461ft 172kts
02-Nov-18 08:14 33.674534 -118.089930 111 5488ft 168kts
02-Nov-18 08:15 33.650695 -118.041795 122 5499ft 169kts
02-Nov-18 08:16 33.622263 -117.996608 126 5499ft 169kts
02-Nov-18 08:17 33.592309 -117.952812 127 5499ft 170kts
02-Nov-18 08:18 33.561770 -117.909438 128 5499ft 170kts
02-Nov-18 08:20 33.525795 -117.858936 128 5499ft 171kts
02-Nov-18 08:20 33.500028 -117.822837 127 5500ft 171kts
02-Nov-18 08:21 33.469586 -117.779332 127 5497ft 168kts
02-Nov-18 08:22 33.440032 -117.737808 127 5498ft 160kts
02-Nov-18 08:23 33.411200 -117.698000 127 5500ft 158kts
02-Nov-18 08:24 33.382715 -117.659100 127 5499ft 159kts
02-Nov-18 08:25 33.350797 -117.621983 133 5499ft 160kts
02-Nov-18 08:26 33.318245 -117.586110 133 5499ft 159kts
02-Nov-18 08:27 33.285396 -117.550394 140 5499ft 160kts
02-Nov-18 08:28 33.249083 -117.519889 141 5501ft 160kts
02-Nov-18 08:29 33.212094 -117.490206 149 5500ft 161kts
02-Nov-18 08:30 33.170773 -117.469278 154 5498ft 161kts
02-Nov-18 08:31 33.129660 -117.448707 152 5494ft 159kts
02-Nov-18 08:32 33.090118 -117.425288 149 5492ft 157kts
02-Nov-18 08:34 33.050973 -117.401889 149 5388ft 159kts
02-Nov-18 08:35 33.011793 -117.377262 148 4838ft 161kts
02-Nov-18 08:36 32.972676 -117.352109 148 4230ft 158kts
02-Nov-18 08:37 32.934855 -117.327442 148 3634ft 156kts
02-Nov-18 08:38 32.899093 -117.303967 148 3489ft 136kts
02-Nov-18 08:39 32.867304 -117.283190 148 3492ft 129kts
02-Nov-18 08:40 32.836073 -117.262593 148 3493ft 128kts
02-Nov-18 08:41 32.803682 -117.240844 148 3032ft 141kts
02-Nov-18 08:42 32.774252 -117.220552 148 1793ft 112kts
02-Nov-18 08:43 32.750549 -117.199506 108 922ft 101kts
02-Nov-18 08:44 32.743538 -117.167693 100 1094ft 91kts
02-Nov-18 08:45 32.729950 -117.149632 200 756ft 90kts
02-Nov-18 08:46 32.729572 -117.173698 289 195ft 73kts
02-Nov-18 08:47 32.734063 -117.187977 41 18ft 0kts
02-Nov-18 08:48 32.734063 -117.187977 41 18ft 0kts
02-Nov-18 08:49 32.734051 -117.186926 105 18ft 13kts
02-Nov-18 08:50 32.732762 -117.181222 92 17ft 15kts
02-Nov-18 08:51 32.733508 -117.178576 145 19ft 0kts
02-Nov-18 08:52 32.733508 -117.178576 145 19ft 0kts
02-Nov-18 08:53 32.733508 -117.178576 145 19ft 0kts
02-Nov-18 08:54 32.733508 -117.178576 145 19ft 0kts

Navigation Log

Ident Type
Flight plan parsing failed, navigation log unavailable